Time;durP1;ratioP1;P1;durP2;ratioP2;P2;SDS_P1;SDS_P2;PMS_P1;PMS_P2;Temp;Humidity;BMP_temperature;BMP_pressure;BME280_temperature;BME280_humidity;BME280_pressure;Samples;Min_cycle;Max_cycle;Signal;HPM_P1;HPM_P2
2022/01/07 00:01:22;;;;;;;17.85;7.70;;;;;;;2.46;80.81;101469.94;5033730;28;20108;-83
2022/01/07 00:03:47;;;;;;;17.33;7.72;;;;;;;2.46;81.20;101470.78;5033480;28;20017;-82
2022/01/07 00:06:12;;;;;;;14.95;7.63;;;;;;;2.38;81.18;101456.53;5032691;28;20033;-85
2022/01/07 00:08:38;;;;;;;14.18;7.18;;;;;;;2.27;80.83;101421.03;5033825;28;20028;-80
2022/01/07 00:11:03;;;;;;;15.20;7.45;;;;;;;2.47;81.22;101462.28;5033323;28;20107;-81
2022/01/07 00:13:29;;;;;;;15.43;8.18;;;;;;;2.25;81.46;101425.31;5033408;28;20044;-83
2022/01/07 00:15:54;;;;;;;14.35;7.97;;;;;;;2.44;82.21;101447.03;5033355;28;20041;-87
2022/01/07 00:18:23;;;;;;;15.63;7.15;;;;;;;2.42;83.04;101453.03;5032986;28;20396;-90
2022/01/07 00:20:50;;;;;;;14.05;8.23;;;;;;;2.18;83.73;101421.22;5033287;28;20096;-89
2022/01/07 00:23:16;;;;;;;17.45;7.80;;;;;;;2.24;83.12;101413.44;5015560;28;20049;-77
2022/01/07 00:25:41;;;;;;;15.40;7.28;;;;;;;2.30;83.90;101434.56;5033193;28;20146;-81
2022/01/07 00:28:06;;;;;;;16.67;7.53;;;;;;;2.27;84.34;101424.44;5033097;28;20119;-77
2022/01/07 00:30:33;;;;;;;17.38;7.30;;;;;;;2.22;83.69;101421.13;5033196;28;20526;-87
2022/01/07 00:32:58;;;;;;;18.40;7.93;;;;;;;2.21;83.84;101426.25;5033676;28;20356;-83
2022/01/07 00:35:24;;;;;;;13.90;7.03;;;;;;;2.22;84.26;101426.22;5032790;28;20124;-77
2022/01/07 00:37:50;;;;;;;13.05;7.22;;;;;;;2.18;84.49;101416.97;5032923;28;20034;-77
2022/01/07 00:40:18;;;;;;;19.23;7.55;;;;;;;1.93;84.87;101367.31;5032935;28;20032;-80
2022/01/07 00:42:45;;;;;;;17.23;6.68;;;;;;;2.06;84.92;101378.13;5032904;28;20346;-89
2022/01/07 00:45:14;;;;;;;14.30;6.82;;;;;;;2.05;85.85;101374.72;5014937;28;20045;-86
2022/01/07 00:47:39;;;;;;;14.38;6.90;;;;;;;2.14;86.05;101384.75;5034303;28;20029;-89
2022/01/07 00:50:06;;;;;;;18.38;7.18;;;;;;;2.10;86.51;101375.50;5034792;28;20026;-88
2022/01/07 00:52:33;;;;;;;14.82;7.22;;;;;;;2.08;86.86;101379.78;5033103;28;20068;-88
2022/01/07 00:54:59;;;;;;;14.10;6.63;;;;;;;2.03;86.58;101378.19;5033909;28;20072;-85
2022/01/07 00:57:24;;;;;;;16.45;7.28;;;;;;;1.57;87.19;101290.75;5033135;28;20065;-88
2022/01/07 00:59:50;;;;;;;16.40;7.25;;;;;;;1.98;87.67;101361.28;5032708;28;20092;-86
2022/01/07 01:02:16;;;;;;;14.45;7.05;;;;;;;1.95;87.54;101355.41;5033110;28;20021;-87
2022/01/07 01:04:44;;;;;;;14.25;7.05;;;;;;;1.73;87.71;101332.88;5032892;28;20032;-91
2022/01/07 01:07:12;;;;;;;16.48;7.35;;;;;;;1.95;86.90;101361.31;5032710;28;20443;-82
2022/01/07 01:09:37;;;;;;;19.88;7.38;;;;;;;1.88;87.09;101334.31;5032839;28;20021;-90
2022/01/07 01:12:03;;;;;;;16.27;6.95;;;;;;;1.88;87.02;101319.03;5032976;28;20033;-88
2022/01/07 01:14:29;;;;;;;17.05;6.70;;;;;;;2.01;86.55;101345.09;5032564;28;20057;-87
2022/01/07 01:16:55;;;;;;;17.60;7.32;;;;;;;1.86;86.88;101313.13;5033329;28;20103;-88
2022/01/07 01:19:21;;;;;;;15.93;6.90;;;;;;;2.01;86.22;101330.66;5032671;28;20384;-92
2022/01/07 01:21:46;;;;;;;19.08;6.63;;;;;;;2.07;86.66;101331.41;5032450;28;20033;-91
2022/01/07 01:24:12;;;;;;;15.70;6.28;;;;;;;2.08;86.08;101330.56;5032776;28;20033;-92
2022/01/07 01:26:37;;;;;;;13.80;6.75;;;;;;;1.85;85.98;101288.53;5032485;28;20025;-88
2022/01/07 01:29:03;;;;;;;13.40;6.45;;;;;;;2.13;85.50;101321.94;5015229;28;20063;-90
2022/01/07 01:31:30;;;;;;;15.82;6.68;;;;;;;2.10;85.63;101316.91;5032692;28;20066;-89
2022/01/07 01:33:56;;;;;;;15.07;6.32;;;;;;;2.18;85.37;101317.59;5033070;28;20025;-86
2022/01/07 01:36:21;;;;;;;12.77;6.32;;;;;;;2.19;85.66;101318.44;5032254;28;20036;-90
2022/01/07 01:38:47;;;;;;;12.38;5.55;;;;;;;2.11;84.37;101299.91;5032578;28;20040;-93
2022/01/07 01:41:12;;;;;;;17.60;6.35;;;;;;;2.13;84.98;101293.91;5032469;28;20107;-91
2022/01/07 01:43:38;;;;;;;12.70;5.47;;;;;;;2.25;85.24;101306.38;5032770;28;20113;-88
2022/01/07 01:46:03;;;;;;;16.15;6.63;;;;;;;2.25;84.30;101300.44;5032296;28;20079;-88
2022/01/07 01:48:28;;;;;;;14.07;5.50;;;;;;;2.26;83.97;101291.94;5032615;28;20026;-88
2022/01/07 01:50:55;;;;;;;16.27;6.40;;;;;;;2.08;84.22;101259.22;5032632;28;20484;-81
2022/01/07 01:53:21;;;;;;;11.93;5.28;;;;;;;2.23;84.34;101271.63;5032912;28;20109;-81
2022/01/07 01:55:46;;;;;;;15.00;6.18;;;;;;;2.29;84.26;101276.59;5033452;28;20049;-90
2022/01/07 01:58:12;;;;;;;14.55;5.50;;;;;;;2.25;83.93;101277.50;5032374;28;20529;-85
2022/01/07 02:00:38;;;;;;;15.32;5.90;;;;;;;2.12;84.45;101258.28;5032386;28;20071;-89
2022/01/07 02:03:05;;;;;;;12.57;5.78;;;;;;;2.29;85.02;101279.16;5032449;28;20354;-93
2022/01/07 02:05:31;;;;;;;12.00;5.63;;;;;;;2.28;84.46;101278.31;5014032;28;20080;-78
2022/01/07 02:07:56;;;;;;;13.73;5.55;;;;;;;2.14;85.30;101254.81;5014664;28;20036;-81
2022/01/07 02:10:22;;;;;;;11.32;4.90;;;;;;;2.27;84.84;101270.69;5032101;28;20499;-81
2022/01/07 02:12:47;;;;;;;10.98;4.78;;;;;;;2.27;84.86;101274.09;5032736;28;20465;-78
2022/01/07 02:15:14;;;;;;;10.18;4.45;;;;;;;2.17;84.47;101251.38;5032306;28;20038;-79
2022/01/07 02:17:42;;;;;;;10.27;4.47;;;;;;;2.11;84.27;101237.06;5032270;28;20026;-77
2022/01/07 02:20:08;;;;;;;9.75;4.50;;;;;;;2.01;84.53;101207.56;5032395;28;20048;-79
2022/01/07 02:22:33;;;;;;;11.88;5.07;;;;;;;2.36;84.09;101265.41;5032067;28;20029;-87
2022/01/07 02:24:58;;;;;;;10.93;4.95;;;;;;;2.39;83.94;101262.78;5032096;28;20025;-81
2022/01/07 02:27:24;;;;;;;13.02;4.70;;;;;;;2.42;83.83;101249.97;5032577;28;20457;-76
2022/01/07 02:29:50;;;;;;;8.38;4.38;;;;;;;2.10;84.05;101188.69;5034817;28;20032;-80
2022/01/07 02:32:17;;;;;;;10.38;3.85;;;;;;;2.42;84.10;101256.75;5035441;28;20025;-85
2022/01/07 02:34:43;;;;;;;10.38;4.05;;;;;;;2.33;84.67;101228.94;5036055;28;20022;-76
2022/01/07 02:37:08;;;;;;;8.07;4.25;;;;;;;2.37;85.72;101235.66;5035241;28;20029;-83
2022/01/07 02:39:34;;;;;;;13.75;4.20;;;;;;;2.14;86.41;101214.06;5035376;28;20021;-83
2022/01/07 02:41:59;;;;;;;8.95;4.07;;;;;;;2.29;86.77;101241.75;5035222;28;20072;-81
2022/01/07 02:44:25;;;;;;;10.63;4.50;;;;;;;2.19;87.88;101229.25;5035194;28;20025;-78
2022/01/07 02:46:50;;;;;;;12.38;5.13;;;;;;;2.22;88.45;101239.38;5035170;28;20034;-81
2022/01/07 02:49:18;;;;;;;11.68;4.55;;;;;;;2.17;88.94;101239.47;5035379;28;20042;-90
2022/01/07 02:51:44;;;;;;;12.52;4.43;;;;;;;2.12;89.54;101238.72;5034957;28;20365;-88
2022/01/07 02:54:11;;;;;;;13.77;4.43;;;;;;;2.09;90.35;101232.88;5035269;28;20087;-87
2022/01/07 02:56:37;;;;;;;11.60;4.63;;;;;;;1.97;90.72;101221.25;5035170;28;20362;-87
2022/01/07 02:59:05;;;;;;;12.75;4.82;;;;;;;1.83;91.44;101196.03;5035223;28;20041;-87
2022/01/07 03:01:31;;;;;;;13.55;4.55;;;;;;;1.98;91.58;101221.22;5035279;28;20133;-90
2022/01/07 03:03:56;;;;;;;10.88;5.18;;;;;;;1.92;92.61;101217.94;5035087;28;20061;-87
2022/01/07 03:06:22;;;;;;;10.80;5.15;;;;;;;1.80;92.88;101202.94;5034721;28;20086;-88
2022/01/07 03:08:49;;;;;;;14.18;5.47;;;;;;;1.53;93.33;101154.25;5035652;28;20030;-86
2022/01/07 03:11:15;;;;;;;13.95;5.53;;;;;;;1.79;93.79;101204.63;5035839;28;20022;-85
2022/01/07 03:13:40;;;;;;;16.67;6.28;;;;;;;1.60;94.41;101180.41;5034989;28;20029;-86
2022/01/07 03:16:06;;;;;;;14.48;4.93;;;;;;;1.57;94.56;101171.13;5035520;28;20037;-87
2022/01/07 03:18:31;;;;;;;15.63;5.20;;;;;;;1.68;94.59;101202.31;5034120;28;20100;-89
2022/01/07 03:20:58;;;;;;;13.88;5.93;;;;;;;1.46;95.03;101167.13;5034962;28;20436;-87
2022/01/07 03:23:24;;;;;;;15.25;5.88;;;;;;;1.37;94.85;101153.69;5034827;28;20022;-83
2022/01/07 03:25:50;;;;;;;10.35;5.45;;;;;;;1.39;95.36;101172.34;5034396;28;20095;-80
2022/01/07 03:28:15;;;;;;;11.77;5.55;;;;;;;1.39;95.55;101167.25;5034444;28;20029;-82
2022/01/07 03:30:41;;;;;;;14.45;5.85;;;;;;;1.24;95.55;101149.72;5034385;28;20035;-87
2022/01/07 03:33:07;;;;;;;14.65;6.13;;;;;;;1.49;96.18;101193.38;5034192;28;20488;-80
2022/01/07 03:35:32;;;;;;;14.27;5.60;;;;;;;1.46;96.40;101190.03;5034272;28;20371;-81
2022/01/07 03:37:58;;;;;;;15.32;6.60;;;;;;;1.43;96.60;101194.31;5034347;28;20034;-81
2022/01/07 03:40:23;;;;;;;13.30;6.00;;;;;;;1.42;96.92;101189.25;5034091;28;20038;-78
2022/01/07 03:42:50;;;;;;;11.93;5.88;;;;;;;1.42;97.16;101196.88;5016066;28;20087;-79
2022/01/07 03:45:16;;;;;;;11.13;5.50;;;;;;;1.27;97.17;101166.63;5034026;28;20108;-80
2022/01/07 03:47:43;;;;;;;13.50;6.35;;;;;;;1.35;97.44;101167.34;5033883;28;20025;-88
2022/01/07 03:50:12;;;;;;;12.40;5.90;;;;;;;1.24;97.59;101144.66;5034157;28;20040;-80
2022/01/07 03:52:37;;;;;;;11.57;5.93;;;;;;;1.44;97.72;101169.69;5033963;28;20032;-85
2022/01/07 03:55:05;;;;;;;15.85;6.57;;;;;;;1.44;97.88;101164.59;5034080;28;20476;-82
2022/01/07 03:57:31;;;;;;;16.20;7.57;;;;;;;1.41;98.02;101154.50;5033770;28;20025;-88
2022/01/07 03:59:56;;;;;;;13.15;6.88;;;;;;;1.47;98.01;101159.44;5033919;28;20037;-80
2022/01/07 04:02:22;;;;;;;14.52;6.53;;;;;;;1.46;98.00;101160.31;5033604;28;20025;-85
2022/01/07 04:04:47;;;;;;;13.88;6.15;;;;;;;1.46;98.38;101152.69;5033718;28;20030;-84
2022/01/07 04:07:12;;;;;;;12.73;6.40;;;;;;;1.46;98.39;101156.94;5033785;28;20032;-82
2022/01/07 04:09:38;;;;;;;12.38;6.60;;;;;;;1.47;98.82;101150.97;5033529;28;20021;-88
2022/01/07 04:12:04;;;;;;;12.85;6.80;;;;;;;1.47;99.21;101150.97;5033755;28;20029;-87
2022/01/07 04:14:29;;;;;;;13.68;6.07;;;;;;;1.44;98.80;101136.63;5033679;28;20029;-85
2022/01/07 04:16:55;;;;;;;13.27;6.85;;;;;;;1.50;99.30;101151.78;5033366;28;20131;-84
2022/01/07 04:19:21;;;;;;;12.15;6.47;;;;;;;1.50;99.07;101148.38;5033462;28;20036;-86
2022/01/07 04:21:49;;;;;;;14.98;6.90;;;;;;;1.37;99.31;101125.72;5033373;28;20384;-86
2022/01/07 04:24:14;;;;;;;13.75;6.90;;;;;;;1.55;99.16;101151.66;5033274;28;20079;-87
2022/01/07 04:26:42;;;;;;;12.70;6.55;;;;;;;1.59;99.78;101158.38;5033166;28;20432;-88
2022/01/07 04:29:07;;;;;;;14.05;7.13;;;;;;;1.59;99.56;101146.50;5033139;28;20108;-86
2022/01/07 04:31:32;;;;;;;15.82;6.85;;;;;;;1.51;99.34;101119.53;5033235;28;20101;-91
2022/01/07 04:33:58;;;;;;;12.25;6.68;;;;;;;1.64;99.41;101143.84;5033252;28;20469;-83
2022/01/07 04:36:23;;;;;;;13.00;6.80;;;;;;;1.50;99.58;101095.78;5033336;28;20118;-86
2022/01/07 04:38:48;;;;;;;16.33;6.82;;;;;;;1.67;100.00;101136.13;5032961;28;20025;-87
2022/01/07 04:41:14;;;;;;;10.80;6.63;;;;;;;1.37;99.84;101084.16;5031939;28;20021;-90
2022/01/07 04:43:39;;;;;;;11.70;7.82;;;;;;;1.56;100.00;101108.34;5032956;28;20064;-86
2022/01/07 04:46:05;;;;;;;14.07;7.18;;;;;;;1.60;100.00;101112.53;5032995;28;20148;-83
2022/01/07 04:48:30;;;;;;;14.40;7.30;;;;;;;1.74;100.00;101127.50;5032846;28;20030;-78
2022/01/07 04:50:56;;;;;;;13.38;7.40;;;;;;;1.78;100.00;101129.13;5032560;28;20128;-86
2022/01/07 04:53:22;;;;;;;14.07;8.15;;;;;;;1.68;100.00;101105.56;5032879;28;20018;-84
2022/01/07 04:55:47;;;;;;;14.65;7.93;;;;;;;1.70;100.00;101100.44;5032833;28;20492;-84
2022/01/07 04:58:14;;;;;;;13.60;8.00;;;;;;;1.84;100.00;101117.94;5032753;28;20025;-87
2022/01/07 05:00:41;;;;;;;12.52;8.20;;;;;;;1.82;100.00;101114.59;5032906;28;20108;-83
2022/01/07 05:03:07;;;;;;;12.77;8.32;;;;;;;1.94;100.00;101127.06;5032834;28;20055;-83
2022/01/07 05:05:33;;;;;;;12.82;8.52;;;;;;;1.96;100.00;101113.41;5032488;28;20196;-84
2022/01/07 05:07:58;;;;;;;13.63;8.65;;;;;;;1.99;100.00;101115.06;5032854;28;20026;-83
2022/01/07 05:10:24;;;;;;;12.93;8.88;;;;;;;1.84;100.00;101087.41;5032499;28;20534;-80
2022/01/07 05:12:50;;;;;;;13.23;8.68;;;;;;;1.86;100.00;101083.09;5032390;28;20025;-85
2022/01/07 05:15:16;;;;;;;16.52;9.57;;;;;;;2.06;100.00;101103.84;5032515;28;20041;-83
2022/01/07 05:17:43;;;;;;;17.38;9.43;;;;;;;2.06;100.00;101098.75;5032712;28;20026;-85
2022/01/07 05:20:10;;;;;;;18.27;9.52;;;;;;;1.92;100.00;101063.44;5032459;28;20032;-85
2022/01/07 05:22:36;;;;;;;11.88;8.88;;;;;;;2.05;100.00;101073.31;5032341;28;20036;-88
2022/01/07 05:25:04;;;;;;;11.63;8.82;;;;;;;2.11;100.00;101086.75;5032221;28;20026;-83
2022/01/07 05:27:29;;;;;;;15.07;9.43;;;;;;;2.07;100.00;101077.53;5032746;28;20030;-81
2022/01/07 05:29:55;;;;;;;14.48;10.63;;;;;;;1.94;100.00;101051.50;5032535;28;20080;-80
2022/01/07 05:32:20;;;;;;;16.92;9.93;;;;;;;1.92;100.00;101052.41;5032440;28;20099;-87
2022/01/07 05:34:45;;;;;;;15.63;9.02;;;;;;;2.24;100.00;101100.88;5032286;28;20057;-87
2022/01/07 05:37:11;;;;;;;16.80;10.57;;;;;;;2.27;100.00;101103.34;5032627;28;20025;-86
2022/01/07 05:39:37;;;;;;;15.65;9.98;;;;;;;2.29;100.00;101104.16;5031926;28;20032;-87
2022/01/07 05:42:03;;;;;;;16.90;10.48;;;;;;;2.30;100.00;101102.44;5032390;28;20388;-82
2022/01/07 05:44:28;;;;;;;15.40;10.57;;;;;;;2.33;100.00;101104.06;5032279;28;20033;-81
2022/01/07 05:46:54;;;;;;;16.70;10.20;;;;;;;2.32;100.00;101089.66;5032397;28;20029;-80
2022/01/07 05:49:20;;;;;;;16.15;10.77;;;;;;;2.21;100.00;101067.00;5032250;28;20064;-85
2022/01/07 05:51:45;;;;;;;15.52;10.90;;;;;;;2.31;100.00;101076.09;5032099;28;20025;-88
2022/01/07 05:54:11;;;;;;;15.10;10.57;;;;;;;2.42;100.00;101096.19;5032054;28;20021;-86
2022/01/07 05:56:36;;;;;;;16.65;10.52;;;;;;;2.43;100.00;101091.06;5032008;28;20030;-80
2022/01/07 05:59:02;;;;;;;20.23;11.80;;;;;;;2.17;100.00;101045.03;5032390;28;20068;-88
2022/01/07 06:01:27;;;;;;;18.23;11.23;;;;;;;2.41;100.00;101080.06;5032513;28;20430;-82
2022/01/07 06:03:53;;;;;;;17.17;11.25;;;;;;;2.47;100.00;101081.63;5033699;28;20052;-76
2022/01/07 06:06:18;;;;;;;17.30;11.68;;;;;;;2.28;100.00;101048.13;5035738;28;20112;-90
2022/01/07 06:08:43;;;;;;;18.35;11.75;;;;;;;2.50;100.00;101084.09;5035852;28;20022;-83
2022/01/07 06:11:09;;;;;;;17.88;11.85;;;;;;;2.51;100.00;101086.59;5035795;28;20048;-89
2022/01/07 06:13:34;;;;;;;19.02;11.98;;;;;;;2.55;100.00;101087.34;5035673;28;20181;-89
2022/01/07 06:15:59;;;;;;;19.65;12.52;;;;;;;2.60;100.00;101093.19;5035874;28;20082;-76
2022/01/07 06:18:25;;;;;;;18.95;11.82;;;;;;;2.50;100.00;101073.91;5035821;28;20037;-88
2022/01/07 06:20:50;;;;;;;19.13;11.88;;;;;;;2.63;100.00;101089.72;5035892;28;20104;-85
2022/01/07 06:23:16;;;;;;;19.17;11.75;;;;;;;2.65;100.00;101088.78;5035603;28;20108;-86
2022/01/07 06:25:44;;;;;;;15.93;11.77;;;;;;;2.66;100.00;101093.03;5035147;28;20028;-82
2022/01/07 06:28:09;;;;;;;19.95;12.80;;;;;;;2.66;100.00;101089.66;5035538;28;20261;-81
2022/01/07 06:30:35;;;;;;;21.48;12.93;;;;;;;2.66;100.00;101085.38;5035855;28;20049;-78
2022/01/07 06:33:00;;;;;;;17.60;12.13;;;;;;;2.45;100.00;101057.88;5035600;28;20071;-84
2022/01/07 06:35:25;;;;;;;16.65;11.82;;;;;;;2.52;100.00;101051.75;5035400;28;20034;-88
2022/01/07 06:37:51;;;;;;;21.92;13.52;;;;;;;2.71;100.00;101096.28;5035389;28;20033;-86
2022/01/07 06:40:16;;;;;;;20.65;12.38;;;;;;;2.71;100.00;101095.47;5035113;28;20053;-77
2022/01/07 06:42:41;;;;;;;18.45;12.25;;;;;;;2.73;100.00;101097.09;5017389;28;20037;-77
2022/01/07 06:45:07;;;;;;;22.00;12.25;;;;;;;2.56;100.00;101063.56;5035335;28;20021;-78
2022/01/07 06:47:33;;;;;;;20.05;13.02;;;;;;;2.69;100.00;101074.25;5035210;28;20029;-84
2022/01/07 06:49:59;;;;;;;21.27;12.55;;;;;;;2.65;100.00;101059.91;5035254;28;20028;-79
2022/01/07 06:52:25;;;;;;;18.73;12.48;;;;;;;2.81;100.00;101081.59;5035092;28;20476;-86
2022/01/07 06:54:50;;;;;;;17.60;11.85;;;;;;;2.70;100.00;101066.56;5035213;28;20029;-85
2022/01/07 06:57:16;;;;;;;21.30;11.90;;;;;;;2.80;100.00;101080.75;5035011;28;20032;-85
2022/01/07 06:59:41;;;;;;;20.85;12.30;;;;;;;2.65;100.00;101057.34;5035182;28;20431;-83
2022/01/07 07:02:07;;;;;;;20.77;12.57;;;;;;;2.67;99.73;101053.09;5035169;28;20033;-81
2022/01/07 07:04:32;;;;;;;19.67;12.90;;;;;;;2.87;100.00;101078.88;5034818;28;20056;-79
2022/01/07 07:06:58;;;;;;;22.85;12.13;;;;;;;2.79;100.00;101065.50;5034955;28;20029;-81
2022/01/07 07:09:24;;;;;;;25.83;13.00;;;;;;;2.81;100.00;101079.88;5034859;28;20028;-83
2022/01/07 07:11:49;;;;;;;20.20;12.18;;;;;;;2.89;99.85;101092.41;5034624;28;20380;-87
2022/01/07 07:14:15;;;;;;;17.50;12.30;;;;;;;2.94;99.73;101103.31;5034277;28;20025;-87
2022/01/07 07:16:40;;;;;;;17.65;12.73;;;;;;;2.79;99.86;101068.03;5034562;28;20056;-86
2022/01/07 07:19:06;;;;;;;21.83;12.82;;;;;;;2.89;99.45;101089.88;5034621;28;20461;-85
2022/01/07 07:21:32;;;;;;;20.55;12.85;;;;;;;2.92;99.64;101096.59;5034744;28;20108;-86
2022/01/07 07:23:57;;;;;;;19.95;14.00;;;;;;;2.89;99.44;101077.13;5034560;28;20083;-86
2022/01/07 07:26:23;;;;;;;19.17;12.63;;;;;;;3.01;99.20;101101.44;5034242;28;20041;-85
2022/01/07 07:28:48;;;;;;;20.17;13.30;;;;;;;3.03;99.59;101095.41;5036553;28;20029;-81
2022/01/07 07:31:16;;;;;;;17.75;12.50;;;;;;;2.97;99.31;101093.06;5034286;28;20022;-87
2022/01/07 07:39:03;;;;;;;22.15;13.65;;;;;;;3.08;99.24;101098.69;4953977;29;20471;-86
2022/01/07 07:41:30;;;;;;;23.65;13.00;;;;;;;2.71;99.49;101031.72;4954037;29;20042;-87
2022/01/07 07:43:57;;;;;;;21.55;13.70;;;;;;;3.11;99.31;101093.50;4954026;29;20098;-83
2022/01/07 07:46:23;;;;;;;20.05;14.23;;;;;;;2.92;99.10;101054.06;4953786;29;20032;-81
2022/01/07 07:48:51;;;;;;;20.98;13.30;;;;;;;2.98;99.13;101058.19;4953731;29;20131;-79
2022/01/07 07:51:18;;;;;;;21.25;13.18;;;;;;;2.81;99.01;101033.13;4953613;29;20106;-84
2022/01/07 07:53:44;;;;;;;19.65;13.77;;;;;;;3.15;99.24;101084.91;4953634;29;20483;-87
2022/01/07 07:56:12;;;;;;;23.15;13.35;;;;;;;2.96;99.06;101060.78;4953674;29;20519;-78
2022/01/07 07:58:38;;;;;;;20.40;12.50;;;;;;;3.10;99.69;101076.53;4953416;29;20034;-75
2022/01/07 08:01:03;;;;;;;21.45;13.52;;;;;;;3.01;99.43;101066.56;4953285;29;20369;-78
2022/01/07 08:03:29;;;;;;;18.60;13.40;;;;;;;2.98;99.29;101050.53;4952385;29;20119;-88
2022/01/07 08:05:54;;;;;;;18.58;13.45;;;;;;;2.95;99.07;101053.13;4954046;29;20390;-82
2022/01/07 08:08:19;;;;;;;23.27;14.23;;;;;;;2.80;98.85;101026.34;4953632;29;20042;-79
2022/01/07 08:10:51;;;;;;;23.67;13.45;;;;;;;3.29;98.92;101101.53;4953404;29;20031;-87
2022/01/07 08:13:30;;;;;;;22.42;13.77;;;;;;;3.13;99.05;101075.59;4984516;28;20381;-85
2022/01/07 08:16:02;;;;;;;22.02;13.73;;;;;;;3.32;98.85;101093.75;5033093;28;20519;-84
2022/01/07 08:18:33;;;;;;;20.92;14.23;;;;;;;3.27;98.51;101078.59;5033354;28;20053;-76
2022/01/07 08:21:10;;;;;;;19.38;12.40;;;;;;;3.38;98.84;101086.78;5033491;28;20025;-87
2022/01/07 08:23:38;;;;;;;22.15;13.23;;;;;;;3.40;98.34;101081.63;5033192;28;20484;-77
2022/01/07 08:26:07;;;;;;;23.60;14.05;;;;;;;3.36;98.91;101073.22;5032519;28;20107;-82
2022/01/07 08:28:38;;;;;;;19.13;12.93;;;;;;;3.28;98.51;101053.91;5033010;28;20021;-83
2022/01/07 08:36:21;;;;;;;18.00;13.30;;;;;;;3.40;98.07;101074.81;5033294;28;20128;-87
2022/01/07 08:38:48;;;;;;;18.98;12.85;;;;;;;3.41;98.24;101081.56;5033004;28;20028;-85
2022/01/07 08:41:16;;;;;;;24.98;13.85;;;;;;;3.47;97.99;101083.13;5014808;28;20112;-83
2022/01/07 08:43:42;;;;;;;22.55;13.90;;;;;;;3.45;98.01;101079.78;5032534;28;20476;-81
2022/01/07 08:46:09;;;;;;;18.27;13.00;;;;;;;3.37;98.05;101071.50;5032606;28;20036;-82
2022/01/07 08:48:36;;;;;;;19.30;13.20;;;;;;;3.55;98.50;101088.00;5050581;28;20025;-81
2022/01/07 08:51:03;;;;;;;20.58;12.98;;;;;;;3.44;97.93;101066.19;5053627;28;20044;-82
2022/01/07 08:53:38;;;;;;;19.88;13.65;;;;;;;3.42;97.99;101060.28;5052766;28;20472;-78
2022/01/07 08:56:05;;;;;;;19.17;12.63;;;;;;;3.37;97.95;101054.47;5052696;28;20029;-83
2022/01/07 08:58:31;;;;;;;27.10;12.40;;;;;;;3.66;97.64;101098.75;5052396;28;20116;-81
2022/01/07 09:00:56;;;;;;;20.42;11.95;;;;;;;3.64;97.45;101093.69;5052632;28;20076;-81
2022/01/07 09:03:22;;;;;;;21.08;12.75;;;;;;;3.66;97.28;101099.56;5052516;28;20032;-84
2022/01/07 09:05:47;;;;;;;18.70;12.60;;;;;;;3.54;97.67;101082.06;5052275;28;20040;-83
2022/01/07 09:08:13;;;;;;;18.75;11.65;;;;;;;3.44;97.74;101058.53;5052337;28;20025;-83
2022/01/07 09:10:39;;;;;;;23.08;12.50;;;;;;;3.23;97.43;101023.41;5052227;28;20060;-86
2022/01/07 09:13:05;;;;;;;16.52;12.30;;;;;;;3.55;97.52;101082.91;5052263;28;20025;-81
2022/01/07 09:15:33;;;;;;;21.70;12.25;;;;;;;3.27;97.67;101027.56;5052139;28;20032;-79
2022/01/07 09:17:59;;;;;;;22.50;12.60;;;;;;;3.45;97.48;101062.75;5052357;28;20471;-77
2022/01/07 09:20:25;;;;;;;21.80;12.45;;;;;;;3.64;97.53;101088.56;5034559;28;20091;-80
2022/01/07 09:22:51;;;;;;;20.48;12.35;;;;;;;3.65;97.31;101085.13;5052438;28;20032;-82
2022/01/07 09:25:17;;;;;;;19.50;11.45;;;;;;;3.47;97.51;101044.00;5052134;28;20089;-82
2022/01/07 09:27:42;;;;;;;21.25;12.63;;;;;;;3.37;97.07;101028.97;5052250;28;20025;-81
2022/01/07 09:30:12;;;;;;;19.98;11.25;;;;;;;3.48;97.17;101028.63;5051945;28;20029;-83
2022/01/07 09:32:38;;;;;;;19.95;12.10;;;;;;;3.85;97.04;101081.97;5052228;28;20358;-80
2022/01/07 09:35:05;;;;;;;18.27;12.13;;;;;;;3.93;96.56;101086.81;5052341;28;20033;-83
2022/01/07 09:37:30;;;;;;;20.30;11.57;;;;;;;3.62;96.25;101033.31;5034988;28;20484;-76
2022/01/07 09:39:56;;;;;;;18.75;11.50;;;;;;;3.83;96.16;101047.13;5056311;28;20111;-82
2022/01/07 09:42:21;;;;;;;19.52;10.32;;;;;;;4.08;95.92;101078.69;5056261;28;20040;-81
2022/01/07 09:44:47;;;;;;;18.55;11.13;;;;;;;4.10;95.90;101082.00;5055876;28;20477;-81
2022/01/07 09:47:13;;;;;;;18.40;10.60;;;;;;;4.03;95.26;101080.53;5056129;28;20029;-80
2022/01/07 09:49:40;;;;;;;17.95;10.32;;;;;;;3.98;95.49;101072.19;5056162;28;20032;-82
2022/01/07 09:52:06;;;;;;;16.35;10.30;;;;;;;3.98;95.58;101077.31;5056017;28;20036;-84
2022/01/07 09:54:33;;;;;;;18.38;11.50;;;;;;;4.00;96.15;101076.38;5056714;28;20028;-80
2022/01/07 09:56:59;;;;;;;17.50;11.18;;;;;;;3.86;95.59;101050.44;5056070;28;20044;-80
2022/01/07 09:59:24;;;;;;;15.70;10.50;;;;;;;3.86;95.43;101031.72;5038034;28;20029;-82
2022/01/07 10:02:09;;;;;;;16.05;10.80;;;;;;;4.07;95.11;101058.28;5055922;28;20463;-85
2022/01/07 10:04:40;;;;;;;20.90;10.65;;;;;;;4.26;95.14;101072.97;5056021;28;20029;-85
2022/01/07 10:07:21;;;;;;;19.52;10.80;;;;;;;4.38;95.01;101065.78;5055912;28;20484;-83
2022/01/07 10:10:06;;;;;;;;;;;;;;;4.64;94.79;101070.03;5056185;28;20028;-84
2022/01/07 10:13:00;;;;;;;18.92;9.50;;;;;;;5.08;92.67;101073.56;5047295;22;19932;-79
2022/01/07 10:15:34;;;;;;;13.95;9.85;;;;;;;5.31;91.24;101068.44;5035492;28;20558;-80
2022/01/07 10:18:02;;;;;;;13.98;8.25;;;;;;;5.14;89.62;101022.16;5035637;28;20017;-86
2022/01/07 10:20:30;;;;;;;12.50;8.25;;;;;;;5.36;89.04;101069.09;5035363;28;20075;-82
2022/01/07 10:23:02;;;;;;;12.70;8.15;;;;;;;5.23;89.44;101051.69;5035859;28;20030;-80
2022/01/07 10:25:30;;;;;;;17.45;8.75;;;;;;;4.84;89.63;101009.59;5035443;28;20034;-77
2022/01/07 10:28:08;;;;;;;18.45;8.68;;;;;;;5.02;90.19;101058.44;5035617;28;20035;-83
2022/01/07 10:30:40;;;;;;;14.43;8.95;;;;;;;4.88;90.33;101031.59;5035360;28;20025;-80
2022/01/07 10:33:19;;;;;;;14.25;8.32;;;;;;;4.84;90.08;101012.16;5035411;28;20025;-82
2022/01/07 10:35:53;;;;;;;13.88;8.30;;;;;;;4.76;90.14;101005.63;5034234;28;20033;-86
2022/01/07 10:38:21;;;;;;;17.20;7.78;;;;;;;4.89;90.03;101024.75;5017658;28;20021;-83
2022/01/07 10:40:49;;;;;;;16.17;8.02;;;;;;;5.08;90.57;101040.28;5035276;28;20030;-87
2022/01/07 10:43:19;;;;;;;15.75;8.40;;;;;;;5.14;90.23;101055.44;5035237;28;20072;-88
2022/01/07 10:45:57;;;;;;;18.33;8.50;;;;;;;5.22;90.77;101047.47;5034641;28;20494;-79
2022/01/07 10:58:43;;;;;;;12.82;6.50;;;;;;;5.15;88.18;101009.28;5322755;22;20529;-73
2022/01/07 11:03:43;;;;;;;14.30;6.30;;;;;;;5.31;89.18;101014.66;5183342;22;20060;-72
2022/01/07 11:06:09;;;;;;;11.65;5.57;;;;;;;5.29;87.30;101011.31;5055479;28;20029;-73
2022/01/07 11:08:34;;;;;;;10.93;5.47;;;;;;;4.43;87.46;100890.06;5055700;28;20033;-70
2022/01/07 11:11:00;;;;;;;11.20;5.18;;;;;;;5.26;87.04;101013.16;5055716;28;20056;-72
2022/01/07 11:13:25;;;;;;;14.10;6.07;;;;;;;5.34;87.54;101018.84;5055424;28;20035;-72
2022/01/07 11:15:53;;;;;;;11.43;5.40;;;;;;;5.42;86.85;101025.34;5055344;28;20021;-74
2022/01/07 11:18:18;;;;;;;9.75;5.60;;;;;;;5.47;86.96;101009.78;5054972;28;20035;-72
2022/01/07 11:20:45;;;;;;;13.85;5.93;;;;;;;5.59;87.02;101008.47;5062343;22;20053;-74
2022/01/07 11:23:10;;;;;;;14.68;5.63;;;;;;;5.51;85.75;101003.66;5055867;28;20028;-76
2022/01/07 11:25:39;;;;;;;11.40;5.65;;;;;;;5.68;85.75;101026.88;5044928;28;20025;-82
2022/01/07 11:28:04;;;;;;;13.02;5.57;;;;;;;5.51;85.30;101013.06;5035263;28;20029;-81
2022/01/07 11:30:35;;;;;;;12.93;5.50;;;;;;;5.48;85.84;101026.81;5035882;28;20028;-83
2022/01/07 11:33:15;;;;;;;16.10;6.50;;;;;;;5.42;85.79;101022.78;5035195;28;20032;-90
2022/01/07 11:35:44;;;;;;;11.80;5.50;;;;;;;5.43;85.50;101021.88;5034985;28;20026;-91
2022/01/07 11:38:14;;;;;;;9.77;5.30;;;;;;;5.37;85.46;101024.66;5035063;28;20080;-92
2022/01/07 11:40:39;;;;;;;10.88;5.65;;;;;;;5.44;86.08;101025.28;5036467;28;20175;-86
2022/01/07 11:43:24;;;;;;;10.52;4.72;;;;;;;5.46;85.06;101026.88;5034848;28;20072;-83